createdAt,value
2018-07-31T17:42:04.404Z,32.60
2018-07-31T17:44:33.169Z,32.40
2018-07-31T17:47:02.471Z,32.40
2018-07-31T17:49:31.298Z,32.30
2018-07-31T17:51:59.974Z,32.30
2018-07-31T17:54:28.469Z,32.40
2018-07-31T17:56:57.074Z,32.30
2018-07-31T17:59:25.625Z,32.30
2018-07-31T18:01:54.911Z,32.30
2018-07-31T18:04:24.214Z,32.20
2018-07-31T18:06:53.211Z,32.20
2018-07-31T18:09:21.774Z,32.20
2018-07-31T18:11:50.905Z,32.10
2018-07-31T18:14:20.018Z,32.00
2018-07-31T18:16:48.513Z,32.00
2018-07-31T18:19:17.098Z,32.00
2018-07-31T18:21:45.716Z,32.00
2018-07-31T18:24:15.044Z,31.90
2018-07-31T18:26:44.418Z,31.90
2018-07-31T18:29:13.024Z,31.90
2018-07-31T18:31:41.588Z,31.80
2018-07-31T18:34:10.238Z,31.80
2018-07-31T18:36:38.822Z,31.80
2018-07-31T18:39:10.252Z,31.70
2018-07-31T18:41:39.375Z,31.70
2018-07-31T18:44:08.276Z,31.60
2018-07-31T18:46:36.934Z,31.60
2018-07-31T18:49:05.975Z,31.60
2018-07-31T18:54:03.138Z,31.40
2018-07-31T18:56:32.413Z,31.40
2018-07-31T18:59:01.002Z,31.30
2018-07-31T19:03:57.853Z,31.30
2018-07-31T19:06:27.056Z,31.30
2018-07-31T19:08:55.734Z,31.20
2018-07-31T19:11:24.387Z,31.10
2018-07-31T19:13:53.404Z,31.10
2018-07-31T19:16:22.039Z,31.10
2018-07-31T19:18:50.586Z,31.00
2018-07-31T19:21:19.317Z,31.00
2018-07-31T19:23:48.122Z,30.90
2018-07-31T19:26:16.718Z,30.90
2018-07-31T19:28:45.247Z,30.80
2018-07-31T19:31:13.843Z,30.70
2018-07-31T19:33:42.419Z,30.60
2018-07-31T19:36:11.022Z,30.60
2018-07-31T19:38:39.591Z,30.60
2018-07-31T19:41:08.187Z,30.50
2018-07-31T19:43:36.727Z,30.50
2018-07-31T19:46:05.244Z,30.40
2018-07-31T19:48:33.756Z,30.30
2018-07-31T19:51:03.177Z,30.30
2018-07-31T19:53:32.409Z,30.30
2018-07-31T19:56:01.682Z,30.20
2018-07-31T20:00:59.018Z,30.20
2018-07-31T20:03:27.568Z,30.20
2018-07-31T20:05:56.157Z,30.20
2018-07-31T20:08:24.767Z,30.10
2018-07-31T20:10:54.025Z,30.10
2018-07-31T20:13:22.706Z,30.10
2018-07-31T20:15:51.271Z,30.00
2018-07-31T20:18:19.870Z,29.80
2018-07-31T20:20:48.510Z,29.80
2018-07-31T20:23:17.091Z,29.70
2018-07-31T20:25:45.620Z,29.60
2018-07-31T20:28:14.283Z,29.50
2018-07-31T20:30:42.906Z,29.40
2018-07-31T20:33:11.417Z,29.30
2018-07-31T20:35:39.997Z,29.30
2018-07-31T20:38:08.565Z,29.10
2018-07-31T20:40:37.174Z,29.10
2018-07-31T20:43:05.839Z,28.90
2018-07-31T20:45:34.434Z,28.80
2018-07-31T20:48:03.538Z,28.70
2018-07-31T20:53:01.057Z,28.60
2018-07-31T20:55:29.712Z,28.50
2018-07-31T20:57:58.372Z,28.50
2018-07-31T21:00:27.088Z,28.60
2018-07-31T21:02:55.802Z,28.70
2018-07-31T21:05:24.521Z,28.70
2018-07-31T21:07:53.437Z,28.60
2018-07-31T21:10:22.287Z,28.60
2018-07-31T21:12:50.818Z,28.60
2018-07-31T21:15:19.978Z,28.60
2018-07-31T21:17:48.634Z,28.60
2018-07-31T21:20:17.233Z,28.60
2018-07-31T21:22:46.326Z,28.40
2018-07-31T21:25:14.941Z,28.50
2018-07-31T21:27:43.477Z,28.50
2018-07-31T21:30:12.117Z,28.40
2018-07-31T21:32:40.714Z,28.20
2018-07-31T21:35:09.976Z,28.10
2018-07-31T21:37:53.042Z,28.10
2018-07-31T21:40:21.955Z,28.20
2018-07-31T21:42:52.566Z,28.20
2018-07-31T21:45:24.993Z,28.10
2018-07-31T21:47:54.890Z,28.00
2018-07-31T21:50:23.372Z,28.10
2018-07-31T21:52:53.262Z,28.10
2018-07-31T21:55:23.290Z,28.10
2018-07-31T21:57:52.005Z,28.10
2018-07-31T22:00:20.626Z,28.10
2018-07-31T22:02:49.956Z,28.10
2018-07-31T22:05:19.046Z,28.10
2018-07-31T22:07:55.689Z,28.10
2018-07-31T22:10:24.916Z,28.10
2018-07-31T22:12:53.594Z,28.10
2018-07-31T22:15:22.849Z,28.00
2018-07-31T22:17:52.064Z,27.90
2018-07-31T22:23:17.113Z,27.90
2018-07-31T22:25:51.661Z,27.90
2018-07-31T22:36:09.314Z,27.90
2018-07-31T22:41:06.832Z,27.90
2018-07-31T22:43:53.740Z,27.80
2018-07-31T22:46:32.206Z,27.70
2018-07-31T22:49:00.726Z,27.60
2018-07-31T22:51:29.307Z,27.40
2018-07-31T22:53:57.789Z,27.20
2018-07-31T22:56:26.375Z,27.10
2018-07-31T22:58:55.505Z,27.00
2018-07-31T23:01:28.808Z,26.90
2018-07-31T23:03:58.083Z,27.00
2018-07-31T23:06:30.252Z,26.90
2018-07-31T23:08:59.612Z,26.80
2018-07-31T23:14:01.759Z,26.70
2018-07-31T23:16:30.980Z,26.60
2018-07-31T23:19:00.896Z,26.30
2018-07-31T23:21:29.426Z,26.10
2018-07-31T23:23:58.577Z,26.10
2018-07-31T23:26:38.462Z,26.10
2018-07-31T23:29:06.956Z,26.10
2018-07-31T23:31:41.416Z,26.20
2018-07-31T23:34:11.013Z,26.30
2018-07-31T23:36:43.113Z,26.20
2018-07-31T23:39:12.510Z,26.20
2018-07-31T23:41:42.460Z,26.10
2018-07-31T23:44:11.562Z,26.10
2018-07-31T23:46:40.179Z,26.00
2018-07-31T23:49:08.817Z,25.90
2018-07-31T23:51:37.552Z,25.90
2018-07-31T23:54:06.158Z,26.00
2018-07-31T23:56:34.739Z,25.90
2018-07-31T23:59:04.249Z,25.80
